sensor_id;sensor_type;location;lat;lon;timestamp;P1;durP1;ratioP1;P2;durP2;ratioP2
8478;SDS011;4276;49.354;6.804;2023-03-31T00:01:05;6.40;;;2.17;;
8478;SDS011;4276;49.354;6.804;2023-03-31T00:03:31;7.75;;;2.95;;
8478;SDS011;4276;49.354;6.804;2023-03-31T00:05:59;6.22;;;2.15;;
8478;SDS011;4276;49.354;6.804;2023-03-31T00:08:26;4.82;;;2.35;;
8478;SDS011;4276;49.354;6.804;2023-03-31T00:11:01;4.72;;;2.08;;
8478;SDS011;4276;49.354;6.804;2023-03-31T00:13:29;6.32;;;2.45;;
8478;SDS011;4276;49.354;6.804;2023-03-31T00:15:57;4.97;;;2.10;;
8478;SDS011;4276;49.354;6.804;2023-03-31T00:18:28;5.15;;;2.30;;
8478;SDS011;4276;49.354;6.804;2023-03-31T00:20:58;6.47;;;2.40;;
8478;SDS011;4276;49.354;6.804;2023-03-31T00:23:31;5.13;;;2.40;;
8478;SDS011;4276;49.354;6.804;2023-03-31T00:25:58;5.05;;;2.22;;
8478;SDS011;4276;49.354;6.804;2023-03-31T00:28:24;6.10;;;1.92;;
8478;SDS011;4276;49.354;6.804;2023-03-31T00:30:51;5.63;;;2.35;;
8478;SDS011;4276;49.354;6.804;2023-03-31T00:33:18;4.82;;;2.05;;
8478;SDS011;4276;49.354;6.804;2023-03-31T00:35:44;4.65;;;2.08;;
8478;SDS011;4276;49.354;6.804;2023-03-31T00:38:11;3.75;;;1.80;;
8478;SDS011;4276;49.354;6.804;2023-03-31T00:40:43;6.40;;;2.40;;
8478;SDS011;4276;49.354;6.804;2023-03-31T00:43:20;7.30;;;2.40;;
8478;SDS011;4276;49.354;6.804;2023-03-31T00:45:52;4.20;;;2.33;;
8478;SDS011;4276;49.354;6.804;2023-03-31T00:48:20;5.00;;;2.40;;
8478;SDS011;4276;49.354;6.804;2023-03-31T00:50:48;5.35;;;1.90;;
8478;SDS011;4276;49.354;6.804;2023-03-31T00:53:20;3.53;;;1.98;;
8478;SDS011;4276;49.354;6.804;2023-03-31T00:55:51;4.50;;;1.88;;
8478;SDS011;4276;49.354;6.804;2023-03-31T00:58:19;3.25;;;1.80;;
8478;SDS011;4276;49.354;6.804;2023-03-31T01:00:47;4.40;;;2.25;;
8478;SDS011;4276;49.354;6.804;2023-03-31T01:03:14;4.53;;;2.28;;
8478;SDS011;4276;49.354;6.804;2023-03-31T01:05:45;4.00;;;1.80;;
8478;SDS011;4276;49.354;6.804;2023-03-31T01:08:15;5.05;;;2.22;;
8478;SDS011;4276;49.354;6.804;2023-03-31T01:10:44;4.80;;;2.30;;
8478;SDS011;4276;49.354;6.804;2023-03-31T01:13:12;5.28;;;2.22;;
8478;SDS011;4276;49.354;6.804;2023-03-31T01:15:40;5.30;;;2.50;;
8478;SDS011;4276;49.354;6.804;2023-03-31T01:18:07;5.25;;;2.17;;
8478;SDS011;4276;49.354;6.804;2023-03-31T01:20:46;7.25;;;2.97;;
8478;SDS011;4276;49.354;6.804;2023-03-31T01:26:25;6.90;;;2.78;;
8478;SDS011;4276;49.354;6.804;2023-03-31T01:31:57;7.43;;;2.75;;
8478;SDS011;4276;49.354;6.804;2023-03-31T01:37:10;5.90;;;2.15;;
8478;SDS011;4276;49.354;6.804;2023-03-31T01:48:04;4.25;;;1.92;;
8478;SDS011;4276;49.354;6.804;2023-03-31T01:55:59;5.13;;;2.00;;
8478;SDS011;4276;49.354;6.804;2023-03-31T01:58:29;3.67;;;2.00;;
8478;SDS011;4276;49.354;6.804;2023-03-31T02:01:12;2.92;;;1.83;;
8478;SDS011;4276;49.354;6.804;2023-03-31T02:03:44;4.40;;;1.67;;
8478;SDS011;4276;49.354;6.804;2023-03-31T02:06:19;2.20;;;1.40;;
8478;SDS011;4276;49.354;6.804;2023-03-31T02:09:03;4.43;;;2.00;;
8478;SDS011;4276;49.354;6.804;2023-03-31T02:11:34;3.75;;;1.90;;
8478;SDS011;4276;49.354;6.804;2023-03-31T02:14:01;4.13;;;1.95;;
8478;SDS011;4276;49.354;6.804;2023-03-31T02:16:29;2.92;;;1.42;;
8478;SDS011;4276;49.354;6.804;2023-03-31T02:18:58;3.78;;;2.00;;
8478;SDS011;4276;49.354;6.804;2023-03-31T02:21:28;3.67;;;1.60;;
8478;SDS011;4276;49.354;6.804;2023-03-31T02:24:01;5.43;;;2.00;;
8478;SDS011;4276;49.354;6.804;2023-03-31T02:26:30;5.00;;;1.65;;
8478;SDS011;4276;49.354;6.804;2023-03-31T02:29:01;5.13;;;2.17;;
8478;SDS011;4276;49.354;6.804;2023-03-31T02:31:29;4.97;;;2.20;;
8478;SDS011;4276;49.354;6.804;2023-03-31T02:34:00;3.10;;;2.15;;
8478;SDS011;4276;49.354;6.804;2023-03-31T02:36:28;5.50;;;2.30;;
8478;SDS011;4276;49.354;6.804;2023-03-31T02:38:57;5.47;;;2.10;;
8478;SDS011;4276;49.354;6.804;2023-03-31T02:41:25;4.57;;;2.03;;
8478;SDS011;4276;49.354;6.804;2023-03-31T02:43:52;5.13;;;1.85;;
8478;SDS011;4276;49.354;6.804;2023-03-31T02:46:18;5.80;;;2.20;;
8478;SDS011;4276;49.354;6.804;2023-03-31T02:48:46;5.25;;;2.40;;
8478;SDS011;4276;49.354;6.804;2023-03-31T03:05:12;4.63;;;1.90;;
8478;SDS011;4276;49.354;6.804;2023-03-31T03:13:20;3.65;;;2.05;;
8478;SDS011;4276;49.354;6.804;2023-03-31T03:15:49;6.57;;;2.65;;
8478;SDS011;4276;49.354;6.804;2023-03-31T03:18:19;7.28;;;1.98;;
8478;SDS011;4276;49.354;6.804;2023-03-31T03:20:45;3.78;;;1.90;;
8478;SDS011;4276;49.354;6.804;2023-03-31T03:23:16;6.30;;;2.10;;
8478;SDS011;4276;49.354;6.804;2023-03-31T03:25:43;4.53;;;2.22;;
8478;SDS011;4276;49.354;6.804;2023-03-31T03:28:09;5.80;;;2.15;;
8478;SDS011;4276;49.354;6.804;2023-03-31T03:30:36;3.35;;;1.80;;
8478;SDS011;4276;49.354;6.804;2023-03-31T03:33:03;5.70;;;2.33;;
8478;SDS011;4276;49.354;6.804;2023-03-31T03:35:31;7.85;;;3.70;;
8478;SDS011;4276;49.354;6.804;2023-03-31T03:37:58;7.82;;;3.80;;
8478;SDS011;4276;49.354;6.804;2023-03-31T03:40:25;6.20;;;3.25;;
8478;SDS011;4276;49.354;6.804;2023-03-31T03:42:51;8.13;;;2.92;;
8478;SDS011;4276;49.354;6.804;2023-03-31T03:45:18;4.35;;;2.72;;
8478;SDS011;4276;49.354;6.804;2023-03-31T03:47:44;7.15;;;3.17;;
8478;SDS011;4276;49.354;6.804;2023-03-31T03:50:11;9.88;;;3.95;;
8478;SDS011;4276;49.354;6.804;2023-03-31T03:52:41;9.07;;;5.00;;
8478;SDS011;4276;49.354;6.804;2023-03-31T03:55:07;7.40;;;4.57;;
8478;SDS011;4276;49.354;6.804;2023-03-31T03:57:34;10.27;;;4.50;;
8478;SDS011;4276;49.354;6.804;2023-03-31T04:00:00;6.15;;;3.47;;
8478;SDS011;4276;49.354;6.804;2023-03-31T04:02:27;8.65;;;3.80;;
8478;SDS011;4276;49.354;6.804;2023-03-31T04:04:54;5.18;;;3.08;;
8478;SDS011;4276;49.354;6.804;2023-03-31T04:07:20;6.05;;;3.10;;
8478;SDS011;4276;49.354;6.804;2023-03-31T04:09:47;7.95;;;3.53;;
8478;SDS011;4276;49.354;6.804;2023-03-31T04:12:13;7.57;;;3.40;;
8478;SDS011;4276;49.354;6.804;2023-03-31T04:14:39;6.28;;;3.83;;
8478;SDS011;4276;49.354;6.804;2023-03-31T04:17:06;7.32;;;3.85;;
8478;SDS011;4276;49.354;6.804;2023-03-31T04:19:35;12.25;;;3.97;;
8478;SDS011;4276;49.354;6.804;2023-03-31T04:22:03;5.82;;;3.53;;
8478;SDS011;4276;49.354;6.804;2023-03-31T04:24:30;5.68;;;3.38;;
8478;SDS011;4276;49.354;6.804;2023-03-31T04:26:58;10.43;;;3.63;;
8478;SDS011;4276;49.354;6.804;2023-03-31T04:29:25;9.60;;;3.92;;
8478;SDS011;4276;49.354;6.804;2023-03-31T04:31:53;9.43;;;3.60;;
8478;SDS011;4276;49.354;6.804;2023-03-31T04:34:24;6.43;;;3.75;;
8478;SDS011;4276;49.354;6.804;2023-03-31T04:37:01;7.25;;;3.63;;
8478;SDS011;4276;49.354;6.804;2023-03-31T04:39:28;8.70;;;4.05;;
8478;SDS011;4276;49.354;6.804;2023-03-31T04:41:58;7.68;;;4.28;;
8478;SDS011;4276;49.354;6.804;2023-03-31T04:44:25;5.28;;;3.88;;
8478;SDS011;4276;49.354;6.804;2023-03-31T04:46:52;5.95;;;3.92;;
8478;SDS011;4276;49.354;6.804;2023-03-31T04:49:19;6.38;;;3.65;;
8478;SDS011;4276;49.354;6.804;2023-03-31T04:51:46;6.82;;;3.83;;
8478;SDS011;4276;49.354;6.804;2023-03-31T04:54:12;6.40;;;3.67;;
8478;SDS011;4276;49.354;6.804;2023-03-31T04:56:38;7.32;;;4.30;;
8478;SDS011;4276;49.354;6.804;2023-03-31T04:59:05;8.35;;;4.25;;
8478;SDS011;4276;49.354;6.804;2023-03-31T05:01:33;6.13;;;4.82;;
8478;SDS011;4276;49.354;6.804;2023-03-31T05:04:02;9.25;;;4.70;;
8478;SDS011;4276;49.354;6.804;2023-03-31T05:06:30;10.15;;;5.07;;
8478;SDS011;4276;49.354;6.804;2023-03-31T05:08:56;9.77;;;4.78;;
8478;SDS011;4276;49.354;6.804;2023-03-31T05:11:22;7.65;;;4.85;;
8478;SDS011;4276;49.354;6.804;2023-03-31T05:13:49;8.90;;;5.13;;
8478;SDS011;4276;49.354;6.804;2023-03-31T05:16:15;10.90;;;5.28;;
8478;SDS011;4276;49.354;6.804;2023-03-31T05:18:43;8.77;;;4.75;;
8478;SDS011;4276;49.354;6.804;2023-03-31T05:21:17;8.55;;;4.60;;
8478;SDS011;4276;49.354;6.804;2023-03-31T05:23:45;7.53;;;4.70;;
8478;SDS011;4276;49.354;6.804;2023-03-31T05:26:12;8.88;;;4.72;;
8478;SDS011;4276;49.354;6.804;2023-03-31T05:28:39;7.13;;;4.20;;
8478;SDS011;4276;49.354;6.804;2023-03-31T05:31:05;6.35;;;4.63;;
8478;SDS011;4276;49.354;6.804;2023-03-31T05:33:33;5.70;;;4.55;;
8478;SDS011;4276;49.354;6.804;2023-03-31T05:36:02;8.25;;;4.65;;
8478;SDS011;4276;49.354;6.804;2023-03-31T05:38:29;9.82;;;5.20;;
8478;SDS011;4276;49.354;6.804;2023-03-31T05:40:57;8.00;;;5.03;;
8478;SDS011;4276;49.354;6.804;2023-03-31T05:43:23;9.57;;;5.72;;
8478;SDS011;4276;49.354;6.804;2023-03-31T05:45:49;8.90;;;4.80;;
8478;SDS011;4276;49.354;6.804;2023-03-31T05:48:16;8.68;;;5.22;;
8478;SDS011;4276;49.354;6.804;2023-03-31T05:50:43;8.82;;;5.68;;
8478;SDS011;4276;49.354;6.804;2023-03-31T05:53:09;7.40;;;5.35;;
8478;SDS011;4276;49.354;6.804;2023-03-31T05:55:37;6.88;;;4.47;;
8478;SDS011;4276;49.354;6.804;2023-03-31T05:58:04;6.78;;;5.35;;
8478;SDS011;4276;49.354;6.804;2023-03-31T06:00:31;6.95;;;4.70;;
8478;SDS011;4276;49.354;6.804;2023-03-31T06:02:58;8.73;;;5.70;;
8478;SDS011;4276;49.354;6.804;2023-03-31T06:05:24;7.15;;;5.00;;
8478;SDS011;4276;49.354;6.804;2023-03-31T06:07:56;7.72;;;4.78;;
8478;SDS011;4276;49.354;6.804;2023-03-31T06:10:22;7.43;;;4.90;;
8478;SDS011;4276;49.354;6.804;2023-03-31T06:12:49;6.45;;;4.68;;
8478;SDS011;4276;49.354;6.804;2023-03-31T06:15:15;6.95;;;5.00;;
8478;SDS011;4276;49.354;6.804;2023-03-31T06:17:42;8.88;;;5.15;;
8478;SDS011;4276;49.354;6.804;2023-03-31T06:20:08;10.23;;;5.13;;
8478;SDS011;4276;49.354;6.804;2023-03-31T06:22:52;8.05;;;5.05;;
8478;SDS011;4276;49.354;6.804;2023-03-31T06:25:19;5.15;;;4.50;;
8478;SDS011;4276;49.354;6.804;2023-03-31T06:27:46;10.88;;;5.25;;
8478;SDS011;4276;49.354;6.804;2023-03-31T06:30:12;9.65;;;4.80;;
8478;SDS011;4276;49.354;6.804;2023-03-31T06:32:39;7.38;;;4.40;;
8478;SDS011;4276;49.354;6.804;2023-03-31T06:35:05;9.93;;;5.40;;
8478;SDS011;4276;49.354;6.804;2023-03-31T06:37:32;6.47;;;4.47;;
8478;SDS011;4276;49.354;6.804;2023-03-31T06:39:58;9.05;;;4.63;;
8478;SDS011;4276;49.354;6.804;2023-03-31T06:42:25;8.10;;;4.72;;
8478;SDS011;4276;49.354;6.804;2023-03-31T06:44:51;7.75;;;4.43;;
8478;SDS011;4276;49.354;6.804;2023-03-31T06:47:18;8.73;;;4.68;;
8478;SDS011;4276;49.354;6.804;2023-03-31T06:49:44;6.88;;;4.07;;
8478;SDS011;4276;49.354;6.804;2023-03-31T06:52:11;6.95;;;3.53;;
8478;SDS011;4276;49.354;6.804;2023-03-31T06:54:37;8.93;;;4.65;;
8478;SDS011;4276;49.354;6.804;2023-03-31T06:57:04;6.45;;;4.18;;
8478;SDS011;4276;49.354;6.804;2023-03-31T06:59:30;6.18;;;3.92;;
8478;SDS011;4276;49.354;6.804;2023-03-31T07:01:57;9.18;;;4.45;;
8478;SDS011;4276;49.354;6.804;2023-03-31T07:04:24;7.78;;;3.88;;
8478;SDS011;4276;49.354;6.804;2023-03-31T07:06:50;7.40;;;4.05;;
8478;SDS011;4276;49.354;6.804;2023-03-31T07:09:17;8.73;;;4.32;;
8478;SDS011;4276;49.354;6.804;2023-03-31T07:11:43;7.75;;;4.40;;
8478;SDS011;4276;49.354;6.804;2023-03-31T07:14:10;9.85;;;4.00;;
8478;SDS011;4276;49.354;6.804;2023-03-31T07:16:37;8.88;;;4.18;;
8478;SDS011;4276;49.354;6.804;2023-03-31T07:19:05;9.20;;;4.55;;
8478;SDS011;4276;49.354;6.804;2023-03-31T07:21:32;7.53;;;4.32;;
8478;SDS011;4276;49.354;6.804;2023-03-31T07:23:59;8.77;;;4.43;;
8478;SDS011;4276;49.354;6.804;2023-03-31T07:26:25;7.85;;;4.30;;
8478;SDS011;4276;49.354;6.804;2023-03-31T07:28:52;11.02;;;4.80;;
8478;SDS011;4276;49.354;6.804;2023-03-31T07:31:22;8.40;;;4.25;;
8478;SDS011;4276;49.354;6.804;2023-03-31T07:33:49;9.27;;;3.97;;
8478;SDS011;4276;49.354;6.804;2023-03-31T07:36:16;12.48;;;4.22;;
8478;SDS011;4276;49.354;6.804;2023-03-31T07:38:44;9.35;;;4.25;;
8478;SDS011;4276;49.354;6.804;2023-03-31T07:41:13;9.70;;;4.72;;
8478;SDS011;4276;49.354;6.804;2023-03-31T07:43:40;13.05;;;5.03;;
8478;SDS011;4276;49.354;6.804;2023-03-31T07:46:12;7.30;;;3.95;;
8478;SDS011;4276;49.354;6.804;2023-03-31T07:48:46;13.27;;;4.25;;
8478;SDS011;4276;49.354;6.804;2023-03-31T07:51:14;8.90;;;4.25;;
8478;SDS011;4276;49.354;6.804;2023-03-31T07:53:41;10.30;;;4.18;;
8478;SDS011;4276;49.354;6.804;2023-03-31T07:56:08;10.35;;;4.60;;
8478;SDS011;4276;49.354;6.804;2023-03-31T07:58:34;11.63;;;4.32;;
8478;SDS011;4276;49.354;6.804;2023-03-31T08:01:01;10.55;;;4.28;;
8478;SDS011;4276;49.354;6.804;2023-03-31T08:03:28;9.77;;;4.10;;
8478;SDS011;4276;49.354;6.804;2023-03-31T08:05:55;9.68;;;4.35;;
8478;SDS011;4276;49.354;6.804;2023-03-31T08:08:21;13.57;;;4.20;;
8478;SDS011;4276;49.354;6.804;2023-03-31T08:10:47;12.35;;;4.63;;
8478;SDS011;4276;49.354;6.804;2023-03-31T08:13:14;10.68;;;5.13;;
8478;SDS011;4276;49.354;6.804;2023-03-31T08:15:41;10.90;;;4.38;;
8478;SDS011;4276;49.354;6.804;2023-03-31T08:18:07;10.95;;;3.75;;
8478;SDS011;4276;49.354;6.804;2023-03-31T08:20:34;8.70;;;3.88;;
8478;SDS011;4276;49.354;6.804;2023-03-31T08:23:00;10.05;;;4.00;;
8478;SDS011;4276;49.354;6.804;2023-03-31T08:25:27;8.55;;;3.63;;
8478;SDS011;4276;49.354;6.804;2023-03-31T08:27:53;7.95;;;3.45;;
8478;SDS011;4276;49.354;6.804;2023-03-31T08:30:21;6.53;;;3.40;;
8478;SDS011;4276;49.354;6.804;2023-03-31T08:32:47;5.57;;;2.90;;
8478;SDS011;4276;49.354;6.804;2023-03-31T08:35:14;7.47;;;2.80;;
8478;SDS011;4276;49.354;6.804;2023-03-31T08:37:40;7.45;;;3.47;;
8478;SDS011;4276;49.354;6.804;2023-03-31T08:40:09;10.52;;;3.60;;
8478;SDS011;4276;49.354;6.804;2023-03-31T08:42:48;7.25;;;3.25;;
8478;SDS011;4276;49.354;6.804;2023-03-31T08:50:48;8.98;;;3.38;;
8478;SDS011;4276;49.354;6.804;2023-03-31T08:55:51;6.35;;;3.70;;
8478;SDS011;4276;49.354;6.804;2023-03-31T08:58:31;9.07;;;3.63;;
8478;SDS011;4276;49.354;6.804;2023-03-31T09:04:18;10.68;;;4.00;;
8478;SDS011;4276;49.354;6.804;2023-03-31T09:09:32;9.45;;;3.95;;
8478;SDS011;4276;49.354;6.804;2023-03-31T09:12:22;6.68;;;3.33;;
8478;SDS011;4276;49.354;6.804;2023-03-31T09:15:01;7.95;;;4.30;;
8478;SDS011;4276;49.354;6.804;2023-03-31T09:17:32;12.45;;;4.05;;
8478;SDS011;4276;49.354;6.804;2023-03-31T09:20:18;10.20;;;3.60;;
8478;SDS011;4276;49.354;6.804;2023-03-31T09:22:51;10.05;;;4.32;;
8478;SDS011;4276;49.354;6.804;2023-03-31T09:25:25;10.73;;;3.75;;
8478;SDS011;4276;49.354;6.804;2023-03-31T09:27:54;9.48;;;4.28;;
8478;SDS011;4276;49.354;6.804;2023-03-31T09:35:45;9.70;;;3.67;;
8478;SDS011;4276;49.354;6.804;2023-03-31T09:38:15;8.90;;;4.25;;
8478;SDS011;4276;49.354;6.804;2023-03-31T09:40:41;10.77;;;4.13;;
8478;SDS011;4276;49.354;6.804;2023-03-31T09:43:21;13.75;;;4.85;;
8478;SDS011;4276;49.354;6.804;2023-03-31T09:45:49;12.32;;;4.13;;
8478;SDS011;4276;49.354;6.804;2023-03-31T09:48:34;8.30;;;3.78;;
8478;SDS011;4276;49.354;6.804;2023-03-31T09:51:02;12.85;;;4.18;;
8478;SDS011;4276;49.354;6.804;2023-03-31T09:56:04;9.05;;;3.63;;
8478;SDS011;4276;49.354;6.804;2023-03-31T09:58:41;8.32;;;3.55;;
8478;SDS011;4276;49.354;6.804;2023-03-31T10:01:13;8.55;;;3.35;;
8478;SDS011;4276;49.354;6.804;2023-03-31T10:03:43;8.57;;;3.22;;
8478;SDS011;4276;49.354;6.804;2023-03-31T10:06:15;8.90;;;3.28;;
8478;SDS011;4276;49.354;6.804;2023-03-31T10:08:42;10.52;;;3.30;;
8478;SDS011;4276;49.354;6.804;2023-03-31T10:11:13;8.63;;;3.83;;
8478;SDS011;4276;49.354;6.804;2023-03-31T10:18:55;9.07;;;3.45;;
8478;SDS011;4276;49.354;6.804;2023-03-31T10:21:37;7.55;;;3.35;;
8478;SDS011;4276;49.354;6.804;2023-03-31T10:24:09;8.05;;;3.60;;
8478;SDS011;4276;49.354;6.804;2023-03-31T10:26:36;7.68;;;2.67;;
8478;SDS011;4276;49.354;6.804;2023-03-31T10:29:09;6.40;;;3.03;;
8478;SDS011;4276;49.354;6.804;2023-03-31T10:31:38;7.03;;;3.17;;
8478;SDS011;4276;49.354;6.804;2023-03-31T10:34:05;6.50;;;2.60;;
8478;SDS011;4276;49.354;6.804;2023-03-31T10:36:33;5.55;;;2.70;;
8478;SDS011;4276;49.354;6.804;2023-03-31T10:39:03;5.57;;;2.90;;
8478;SDS011;4276;49.354;6.804;2023-03-31T10:41:31;5.57;;;2.80;;
8478;SDS011;4276;49.354;6.804;2023-03-31T10:43:59;5.60;;;2.72;;
8478;SDS011;4276;49.354;6.804;2023-03-31T10:51:48;8.75;;;2.40;;
8478;SDS011;4276;49.354;6.804;2023-03-31T10:54:17;5.47;;;2.15;;
8478;SDS011;4276;49.354;6.804;2023-03-31T10:56:45;5.10;;;2.15;;
8478;SDS011;4276;49.354;6.804;2023-03-31T11:07:39;5.97;;;2.35;;
8478;SDS011;4276;49.354;6.804;2023-03-31T11:16:03;4.88;;;2.40;;
8478;SDS011;4276;49.354;6.804;2023-03-31T11:18:35;4.15;;;2.20;;
8478;SDS011;4276;49.354;6.804;2023-03-31T11:31:30;2.70;;;1.60;;
8478;SDS011;4276;49.354;6.804;2023-03-31T11:42:02;4.72;;;2.53;;
8478;SDS011;4276;49.354;6.804;2023-03-31T11:44:35;5.82;;;2.10;;
8478;SDS011;4276;49.354;6.804;2023-03-31T11:47:17;6.00;;;2.33;;
8478;SDS011;4276;49.354;6.804;2023-03-31T11:49:47;5.25;;;1.98;;
8478;SDS011;4276;49.354;6.804;2023-03-31T11:52:18;4.25;;;1.83;;
8478;SDS011;4276;49.354;6.804;2023-03-31T11:54:51;5.68;;;2.53;;
8478;SDS011;4276;49.354;6.804;2023-03-31T12:00:05;6.75;;;2.40;;
8478;SDS011;4276;49.354;6.804;2023-03-31T12:02:38;5.40;;;2.35;;
8478;SDS011;4276;49.354;6.804;2023-03-31T12:05:06;6.25;;;2.58;;
8478;SDS011;4276;49.354;6.804;2023-03-31T12:07:36;5.80;;;2.90;;
8478;SDS011;4276;49.354;6.804;2023-03-31T12:18:09;7.03;;;2.45;;
8478;SDS011;4276;49.354;6.804;2023-03-31T12:20:38;7.03;;;2.45;;
8478;SDS011;4276;49.354;6.804;2023-03-31T12:23:10;6.63;;;2.38;;
8478;SDS011;4276;49.354;6.804;2023-03-31T12:25:49;4.47;;;2.38;;
8478;SDS011;4276;49.354;6.804;2023-03-31T12:28:18;6.38;;;2.60;;
8478;SDS011;4276;49.354;6.804;2023-03-31T12:30:45;6.20;;;2.92;;
8478;SDS011;4276;49.354;6.804;2023-03-31T12:49:19;9.55;;;3.30;;
8478;SDS011;4276;49.354;6.804;2023-03-31T12:57:24;6.47;;;3.03;;
8478;SDS011;4276;49.354;6.804;2023-03-31T13:02:39;6.03;;;2.88;;
8478;SDS011;4276;49.354;6.804;2023-03-31T13:08:04;5.20;;;3.15;;
8478;SDS011;4276;49.354;6.804;2023-03-31T13:10:33;8.13;;;2.85;;
8478;SDS011;4276;49.354;6.804;2023-03-31T13:13:21;6.93;;;2.83;;
8478;SDS011;4276;49.354;6.804;2023-03-31T13:15:56;6.55;;;2.83;;
8478;SDS011;4276;49.354;6.804;2023-03-31T13:18:32;4.30;;;2.75;;
8478;SDS011;4276;49.354;6.804;2023-03-31T13:20:59;6.95;;;3.50;;
8478;SDS011;4276;49.354;6.804;2023-03-31T13:23:33;6.13;;;2.58;;
8478;SDS011;4276;49.354;6.804;2023-03-31T13:26:00;7.32;;;3.15;;
8478;SDS011;4276;49.354;6.804;2023-03-31T13:30:59;6.10;;;2.78;;
8478;SDS011;4276;49.354;6.804;2023-03-31T13:36:28;5.97;;;1.85;;
8478;SDS011;4276;49.354;6.804;2023-03-31T14:08:03;6.38;;;2.25;;
8478;SDS011;4276;49.354;6.804;2023-03-31T14:10:33;4.85;;;2.08;;
8478;SDS011;4276;49.354;6.804;2023-03-31T14:13:09;4.68;;;2.20;;
8478;SDS011;4276;49.354;6.804;2023-03-31T14:15:47;4.80;;;1.85;;
8478;SDS011;4276;49.354;6.804;2023-03-31T14:18:18;6.28;;;2.63;;
8478;SDS011;4276;49.354;6.804;2023-03-31T14:26:34;5.55;;;2.13;;
8478;SDS011;4276;49.354;6.804;2023-03-31T14:37:05;3.78;;;2.22;;
8478;SDS011;4276;49.354;6.804;2023-03-31T14:39:37;5.47;;;2.38;;
8478;SDS011;4276;49.354;6.804;2023-03-31T14:42:17;5.28;;;2.67;;
8478;SDS011;4276;49.354;6.804;2023-03-31T14:44:44;4.70;;;2.38;;
8478;SDS011;4276;49.354;6.804;2023-03-31T14:47:15;3.55;;;2.20;;
8478;SDS011;4276;49.354;6.804;2023-03-31T14:49:45;6.72;;;2.55;;
8478;SDS011;4276;49.354;6.804;2023-03-31T14:52:20;6.18;;;2.55;;
8478;SDS011;4276;49.354;6.804;2023-03-31T14:54:51;3.70;;;2.20;;
8478;SDS011;4276;49.354;6.804;2023-03-31T14:57:26;3.85;;;2.00;;
8478;SDS011;4276;49.354;6.804;2023-03-31T15:00:05;3.38;;;1.85;;
8478;SDS011;4276;49.354;6.804;2023-03-31T15:02:38;3.17;;;2.28;;
8478;SDS011;4276;49.354;6.804;2023-03-31T15:05:13;3.90;;;2.70;;
8478;SDS011;4276;49.354;6.804;2023-03-31T15:07:48;3.85;;;2.10;;
8478;SDS011;4276;49.354;6.804;2023-03-31T15:10:19;5.65;;;2.70;;
8478;SDS011;4276;49.354;6.804;2023-03-31T15:12:47;4.10;;;2.70;;
8478;SDS011;4276;49.354;6.804;2023-03-31T15:15:14;3.72;;;2.28;;
8478;SDS011;4276;49.354;6.804;2023-03-31T15:17:41;4.10;;;2.25;;
8478;SDS011;4276;49.354;6.804;2023-03-31T15:22:56;3.70;;;2.10;;
8478;SDS011;4276;49.354;6.804;2023-03-31T15:25:35;4.05;;;1.98;;
8478;SDS011;4276;49.354;6.804;2023-03-31T15:28:09;3.83;;;2.70;;
8478;SDS011;4276;49.354;6.804;2023-03-31T15:30:39;4.63;;;2.08;;
8478;SDS011;4276;49.354;6.804;2023-03-31T15:33:06;6.13;;;2.75;;
8478;SDS011;4276;49.354;6.804;2023-03-31T15:35:44;3.88;;;2.38;;
8478;SDS011;4276;49.354;6.804;2023-03-31T15:38:11;4.65;;;2.60;;
8478;SDS011;4276;49.354;6.804;2023-03-31T15:40:41;3.42;;;1.98;;
8478;SDS011;4276;49.354;6.804;2023-03-31T15:43:44;4.70;;;2.00;;
8478;SDS011;4276;49.354;6.804;2023-03-31T15:49:05;5.60;;;3.30;;
8478;SDS011;4276;49.354;6.804;2023-03-31T15:51:45;6.18;;;2.83;;
8478;SDS011;4276;49.354;6.804;2023-03-31T15:54:36;5.00;;;2.47;;
8478;SDS011;4276;49.354;6.804;2023-03-31T15:57:06;9.20;;;3.08;;
8478;SDS011;4276;49.354;6.804;2023-03-31T16:02:39;6.47;;;4.28;;
8478;SDS011;4276;49.354;6.804;2023-03-31T16:05:23;5.72;;;4.25;;
8478;SDS011;4276;49.354;6.804;2023-03-31T16:08:21;5.50;;;2.40;;
8478;SDS011;4276;49.354;6.804;2023-03-31T16:10:55;4.85;;;2.30;;
8478;SDS011;4276;49.354;6.804;2023-03-31T16:13:27;5.53;;;2.35;;
8478;SDS011;4276;49.354;6.804;2023-03-31T16:15:55;3.20;;;2.00;;
8478;SDS011;4276;49.354;6.804;2023-03-31T16:18:29;2.92;;;1.90;;
8478;SDS011;4276;49.354;6.804;2023-03-31T16:21:01;2.65;;;1.80;;
8478;SDS011;4276;49.354;6.804;2023-03-31T16:23:30;4.57;;;1.83;;
8478;SDS011;4276;49.354;6.804;2023-03-31T16:25:59;3.25;;;2.20;;
8478;SDS011;4276;49.354;6.804;2023-03-31T16:28:30;4.82;;;1.88;;
8478;SDS011;4276;49.354;6.804;2023-03-31T16:30:58;3.60;;;2.00;;
8478;SDS011;4276;49.354;6.804;2023-03-31T16:33:28;3.17;;;1.80;;
8478;SDS011;4276;49.354;6.804;2023-03-31T16:35:56;3.70;;;1.65;;
8478;SDS011;4276;49.354;6.804;2023-03-31T16:38:25;4.65;;;2.65;;
8478;SDS011;4276;49.354;6.804;2023-03-31T16:40:53;4.63;;;2.50;;
8478;SDS011;4276;49.354;6.804;2023-03-31T16:43:25;4.45;;;2.83;;
8478;SDS011;4276;49.354;6.804;2023-03-31T16:45:59;4.70;;;2.30;;
8478;SDS011;4276;49.354;6.804;2023-03-31T16:48:27;2.80;;;2.47;;
8478;SDS011;4276;49.354;6.804;2023-03-31T16:50:55;4.80;;;2.65;;
8478;SDS011;4276;49.354;6.804;2023-03-31T16:53:24;5.97;;;2.65;;
8478;SDS011;4276;49.354;6.804;2023-03-31T16:55:53;3.97;;;2.40;;
8478;SDS011;4276;49.354;6.804;2023-03-31T16:58:20;5.47;;;2.58;;
8478;SDS011;4276;49.354;6.804;2023-03-31T17:00:49;4.30;;;2.42;;
8478;SDS011;4276;49.354;6.804;2023-03-31T17:03:15;4.13;;;2.58;;
8478;SDS011;4276;49.354;6.804;2023-03-31T17:05:43;5.05;;;2.67;;
8478;SDS011;4276;49.354;6.804;2023-03-31T17:08:11;6.05;;;2.75;;
8478;SDS011;4276;49.354;6.804;2023-03-31T17:10:38;5.72;;;2.60;;
8478;SDS011;4276;49.354;6.804;2023-03-31T17:13:06;3.80;;;2.22;;
8478;SDS011;4276;49.354;6.804;2023-03-31T17:15:33;5.55;;;2.20;;
8478;SDS011;4276;49.354;6.804;2023-03-31T17:18:03;9.63;;;2.78;;
8478;SDS011;4276;49.354;6.804;2023-03-31T17:20:30;3.95;;;2.17;;
8478;SDS011;4276;49.354;6.804;2023-03-31T17:22:56;6.55;;;2.63;;
8478;SDS011;4276;49.354;6.804;2023-03-31T17:25:23;5.80;;;2.42;;
8478;SDS011;4276;49.354;6.804;2023-03-31T17:27:50;6.07;;;2.65;;
8478;SDS011;4276;49.354;6.804;2023-03-31T17:30:17;5.90;;;2.35;;
8478;SDS011;4276;49.354;6.804;2023-03-31T17:32:43;4.82;;;2.50;;
8478;SDS011;4276;49.354;6.804;2023-03-31T17:35:10;5.15;;;2.47;;
8478;SDS011;4276;49.354;6.804;2023-03-31T17:37:36;4.57;;;2.35;;
8478;SDS011;4276;49.354;6.804;2023-03-31T17:40:04;6.53;;;2.47;;
8478;SDS011;4276;49.354;6.804;2023-03-31T17:42:31;7.60;;;2.53;;
8478;SDS011;4276;49.354;6.804;2023-03-31T17:44:57;4.82;;;2.25;;
8478;SDS011;4276;49.354;6.804;2023-03-31T17:47:24;3.67;;;2.28;;
8478;SDS011;4276;49.354;6.804;2023-03-31T17:49:55;2.95;;;1.55;;
8478;SDS011;4276;49.354;6.804;2023-03-31T17:52:21;2.40;;;1.67;;
8478;SDS011;4276;49.354;6.804;2023-03-31T17:54:48;1.48;;;1.38;;
8478;SDS011;4276;49.354;6.804;2023-03-31T17:57:16;1.20;;;1.10;;
8478;SDS011;4276;49.354;6.804;2023-03-31T17:59:42;1.75;;;1.20;;
8478;SDS011;4276;49.354;6.804;2023-03-31T18:02:10;3.78;;;1.30;;
8478;SDS011;4276;49.354;6.804;2023-03-31T18:04:38;2.22;;;1.48;;
8478;SDS011;4276;49.354;6.804;2023-03-31T18:07:04;1.75;;;1.10;;
8478;SDS011;4276;49.354;6.804;2023-03-31T18:09:31;1.30;;;1.20;;
8478;SDS011;4276;49.354;6.804;2023-03-31T18:11:58;3.38;;;1.75;;
8478;SDS011;4276;49.354;6.804;2023-03-31T18:14:24;2.30;;;1.40;;
8478;SDS011;4276;49.354;6.804;2023-03-31T18:16:52;2.65;;;1.83;;
8478;SDS011;4276;49.354;6.804;2023-03-31T18:19:19;4.03;;;3.30;;
8478;SDS011;4276;49.354;6.804;2023-03-31T18:21:45;2.80;;;2.50;;
8478;SDS011;4276;49.354;6.804;2023-03-31T18:24:12;2.83;;;1.85;;
8478;SDS011;4276;49.354;6.804;2023-03-31T18:26:39;2.72;;;1.63;;
8478;SDS011;4276;49.354;6.804;2023-03-31T18:29:05;2.63;;;1.90;;
8478;SDS011;4276;49.354;6.804;2023-03-31T18:31:32;2.15;;;1.65;;
8478;SDS011;4276;49.354;6.804;2023-03-31T18:33:58;3.63;;;2.55;;
8478;SDS011;4276;49.354;6.804;2023-03-31T18:36:25;3.08;;;2.10;;
8478;SDS011;4276;49.354;6.804;2023-03-31T18:38:53;3.33;;;2.05;;
8478;SDS011;4276;49.354;6.804;2023-03-31T18:41:20;4.50;;;2.10;;
8478;SDS011;4276;49.354;6.804;2023-03-31T18:43:48;2.83;;;1.73;;
8478;SDS011;4276;49.354;6.804;2023-03-31T18:46:17;4.18;;;1.83;;
8478;SDS011;4276;49.354;6.804;2023-03-31T18:48:44;4.78;;;1.70;;
8478;SDS011;4276;49.354;6.804;2023-03-31T18:51:11;4.70;;;2.10;;